createdAt,value
2017-01-23T00:00:19.438Z,91.72
2017-01-23T00:01:00.041Z,91.72
2017-01-23T00:01:40.657Z,92
2017-01-23T00:02:21.245Z,92.19
2017-01-23T00:03:01.815Z,91.72
2017-01-23T00:03:42.443Z,91.72
2017-01-23T00:04:23.057Z,92.66
2017-01-23T00:05:03.647Z,91.82
2017-01-23T00:05:44.231Z,92.29
2017-01-23T00:06:24.877Z,91.63
2017-01-23T00:07:05.444Z,91.72
2017-01-23T00:07:46.152Z,92
2017-01-23T00:08:26.794Z,92
2017-01-23T00:09:07.371Z,91.91
2017-01-23T00:09:48.054Z,92
2017-01-23T00:10:28.677Z,91.91
2017-01-23T00:11:09.350Z,91.91
2017-01-23T00:11:50.989Z,92
2017-01-23T00:12:31.609Z,92
2017-01-23T00:13:12.193Z,92.66
2017-01-23T00:13:52.867Z,92.66
2017-01-23T00:14:33.523Z,92.38
2017-01-23T00:15:14.177Z,92.47
2017-01-23T00:15:54.802Z,92.66
2017-01-23T00:16:35.463Z,92.47
2017-01-23T00:17:16.109Z,92.66
2017-01-23T00:17:56.762Z,92.66
2017-01-23T00:18:37.415Z,92.76
2017-01-23T00:19:18.039Z,92.85
2017-01-23T00:19:58.619Z,92.85
2017-01-23T00:20:40.183Z,92.85
2017-01-23T00:21:21.780Z,92.85
2017-01-23T00:22:02.470Z,92.66
2017-01-23T00:22:43.103Z,92.85
2017-01-23T00:23:23.758Z,92.85
2017-01-23T00:24:04.414Z,92.76
2017-01-23T00:24:45.062Z,92.85
2017-01-23T00:25:25.706Z,92.38
2017-01-23T00:26:06.354Z,92.1
2017-01-23T00:26:47.018Z,92.57
2017-01-23T00:27:27.670Z,92.38
2017-01-23T00:28:08.324Z,92.47
2017-01-23T00:28:48.980Z,92.47
2017-01-23T00:29:29.567Z,92.29
2017-01-23T00:30:10.163Z,92.38
2017-01-23T00:30:50.732Z,92.29
2017-01-23T00:31:31.385Z,92.47
2017-01-23T00:32:11.971Z,92.47
2017-01-23T00:32:52.570Z,92.47
2017-01-23T00:33:33.102Z,92.57
2017-01-23T00:34:13.710Z,92.57
2017-01-23T00:34:54.368Z,92.57
2017-01-23T00:35:34.980Z,92.47
2017-01-23T00:36:15.636Z,91.82
2017-01-23T00:36:56.312Z,92.76
2017-01-23T00:37:36.950Z,92.66
2017-01-23T00:38:17.592Z,91.82
2017-01-23T00:38:58.253Z,92.76
2017-01-23T00:39:38.899Z,91.91
2017-01-23T00:40:19.460Z,92.76
2017-01-23T00:41:00.112Z,92.47
2017-01-23T00:41:40.750Z,92.66
2017-01-23T00:42:21.330Z,92.66
2017-01-23T00:43:01.961Z,92.57
2017-01-23T00:43:42.607Z,92.66
2017-01-23T00:44:23.697Z,92.66
2017-01-23T00:45:05.357Z,92.57
2017-01-23T00:45:46.012Z,92.57
2017-01-23T00:46:26.680Z,92.57
2017-01-23T00:47:08.300Z,92.66
2017-01-23T00:47:48.886Z,92.66
2017-01-23T00:48:29.530Z,92.47
2017-01-23T00:49:11.210Z,91.91
2017-01-23T00:49:51.786Z,92.66
2017-01-23T00:50:32.433Z,92
2017-01-23T00:51:13.534Z,91.82
2017-01-23T00:51:54.843Z,92.76
2017-01-23T00:52:35.404Z,92.29
2017-01-23T00:53:16.050Z,91.72
2017-01-23T00:53:57.570Z,91.82
2017-01-23T00:54:38.219Z,92
2017-01-23T00:55:18.888Z,91.91
2017-01-23T00:55:59.527Z,92.19
2017-01-23T00:56:40.185Z,92.29
2017-01-23T00:57:21.863Z,92.29
2017-01-23T00:58:02.501Z,91.82
2017-01-23T00:58:43.163Z,91.91
2017-01-23T00:59:23.719Z,92
2017-01-23T01:00:04.329Z,91.91
2017-01-23T01:00:44.971Z,91.91
2017-01-23T01:01:25.527Z,91.91
2017-01-23T01:02:06.179Z,92
2017-01-23T01:02:46.824Z,91.72
2017-01-23T01:03:27.382Z,91.82
2017-01-23T01:04:08.053Z,91.82
2017-01-23T01:04:49.698Z,91.82
2017-01-23T01:05:30.365Z,91.72
2017-01-23T01:06:11.034Z,92
2017-01-23T01:06:51.672Z,91.91
2017-01-23T01:07:32.340Z,91.82
2017-01-23T01:08:14.017Z,91.91
2017-01-23T01:08:55.695Z,92.19
2017-01-23T01:09:36.351Z,92.1
2017-01-23T01:10:16.980Z,91.91
2017-01-23T01:10:57.648Z,92.29
2017-01-23T01:11:38.304Z,92.29
2017-01-23T01:12:18.943Z,92.29
2017-01-23T01:12:59.609Z,91.35
2017-01-23T01:13:40.241Z,92
2017-01-23T01:14:20.909Z,92.29
2017-01-23T01:15:01.569Z,92
2017-01-23T01:15:42.200Z,91.72
2017-01-23T01:16:22.854Z,91.35
2017-01-23T01:17:03.529Z,91.63
2017-01-23T01:17:45.221Z,91.53
2017-01-23T01:18:25.837Z,91.63
2017-01-23T01:19:08.438Z,91.63
2017-01-23T01:19:49.107Z,91.63
2017-01-23T01:20:30.792Z,91.72
2017-01-23T01:21:11.437Z,91.44
2017-01-23T01:21:52.072Z,91.44
2017-01-23T01:22:32.733Z,91.82
2017-01-23T01:23:13.435Z,91.91
2017-01-23T01:23:54.044Z,91.82
2017-01-23T01:24:36.652Z,91.72
2017-01-23T01:25:17.302Z,91.72
2017-01-23T01:25:58.796Z,91.72
2017-01-23T01:26:39.421Z,91.63
2017-01-23T01:27:20.067Z,91.72
2017-01-23T01:28:00.734Z,91.63
2017-01-23T01:28:41.387Z,91.63
2017-01-23T01:29:22.028Z,91.72
2017-01-23T01:30:03.633Z,91.63
2017-01-23T01:30:44.259Z,91.82
2017-01-23T01:31:24.912Z,91.82
2017-01-23T01:32:05.590Z,91.82
2017-01-23T01:32:46.199Z,91.72
2017-01-23T01:33:26.876Z,91.91
2017-01-23T01:34:07.529Z,91.72
2017-01-23T01:34:49.105Z,91.72
2017-01-23T01:35:29.744Z,91.63
2017-01-23T01:36:10.400Z,91.63
2017-01-23T01:36:51.065Z,91.91
2017-01-23T01:37:31.694Z,91.44
2017-01-23T01:38:12.372Z,91.53
2017-01-23T01:38:53.056Z,91.72
2017-01-23T01:39:33.666Z,91.72
2017-01-23T01:40:14.325Z,91.63
2017-01-23T01:40:54.983Z,91.53
2017-01-23T01:41:35.632Z,90.97
2017-01-23T01:42:17.306Z,91.91
2017-01-23T01:42:57.956Z,91.72
2017-01-23T01:43:38.623Z,91.53
2017-01-23T01:44:19.277Z,91.72
2017-01-23T01:44:59.953Z,91.53
2017-01-23T01:45:40.567Z,91.16
2017-01-23T01:46:21.136Z,91.06
2017-01-23T01:47:01.769Z,91.44
2017-01-23T01:47:43.394Z,91.44
2017-01-23T01:48:23.997Z,90.88
2017-01-23T01:49:04.557Z,91.44
2017-01-23T01:49:45.208Z,91.53
2017-01-23T01:50:25.906Z,91.53
2017-01-23T01:51:06.487Z,91.44
2017-01-23T01:51:47.042Z,91.44
2017-01-23T01:52:27.696Z,91.35
2017-01-23T01:53:09.331Z,91.53
2017-01-23T01:53:49.929Z,91.44
2017-01-23T01:54:30.503Z,91.53
2017-01-23T01:55:11.155Z,91.53
2017-01-23T01:55:51.751Z,91.53
2017-01-23T01:56:32.447Z,91.25
2017-01-23T01:57:13.018Z,91.44
2017-01-23T01:57:53.649Z,91.35
2017-01-23T01:58:34.252Z,91.44
2017-01-23T01:59:14.852Z,91.44
2017-01-23T01:59:55.432Z,91.44
2017-01-23T02:00:36.055Z,91.63
2017-01-23T02:01:16.661Z,91.16
2017-01-23T02:01:57.349Z,91.16
2017-01-23T02:02:37.917Z,91.44
2017-01-23T02:03:18.579Z,91.35
2017-01-23T02:03:59.171Z,91.44
2017-01-23T02:04:39.756Z,91.35
2017-01-23T02:05:20.306Z,91.44
2017-01-23T02:06:00.978Z,91.16
2017-01-23T02:06:41.573Z,91.44
2017-01-23T02:07:22.171Z,91.35
2017-01-23T02:08:02.741Z,91.16
2017-01-23T02:08:43.364Z,91.16
2017-01-23T02:09:23.977Z,91.16
2017-01-23T02:10:04.572Z,91.35
2017-01-23T02:10:45.129Z,91.16
2017-01-23T02:11:25.796Z,91.35
2017-01-23T02:12:06.387Z,91.35
2017-01-23T02:12:47.993Z,90.78
2017-01-23T02:13:28.546Z,90.97
2017-01-23T02:14:09.216Z,91.06
2017-01-23T02:14:49.867Z,90.97
2017-01-23T02:15:30.518Z,91.25
2017-01-23T02:16:11.171Z,91.06
2017-01-23T02:16:51.919Z,91.06
2017-01-23T02:17:32.579Z,91.06
2017-01-23T02:18:13.223Z,90.97
2017-01-23T02:18:53.883Z,90.78
2017-01-23T02:19:34.445Z,90.78
2017-01-23T02:20:15.097Z,90.78
2017-01-23T02:20:55.695Z,90.59
2017-01-23T02:21:36.388Z,90.78
2017-01-23T02:22:16.931Z,90.78
2017-01-23T02:22:57.612Z,90.78
2017-01-23T02:23:38.184Z,90.69
2017-01-23T02:24:19.293Z,90.97
2017-01-23T02:24:59.887Z,90.97
2017-01-23T02:25:40.522Z,90.88
2017-01-23T02:26:21.087Z,91.25
2017-01-23T02:27:01.726Z,90.97
2017-01-23T02:27:42.460Z,90.97
2017-01-23T02:28:24.011Z,91.06
2017-01-23T02:29:04.606Z,91.06
2017-01-23T02:29:45.247Z,90.97
2017-01-23T02:30:25.788Z,90.97
2017-01-23T02:31:06.462Z,91.06
2017-01-23T02:31:47.109Z,90.97
2017-01-23T02:32:27.768Z,90.97
2017-01-23T02:33:08.423Z,90.78
2017-01-23T02:33:49.090Z,90.5
2017-01-23T02:34:29.757Z,90.88
2017-01-23T02:35:10.373Z,90.78
2017-01-23T02:35:50.946Z,90.69
2017-01-23T02:36:31.605Z,90.59
2017-01-23T02:37:12.282Z,90.59
2017-01-23T02:37:52.880Z,90.59
2017-01-23T02:38:33.441Z,90.88
2017-01-23T02:39:14.111Z,90.59
2017-01-23T02:39:54.793Z,90.78
2017-01-23T02:40:36.404Z,90.78
2017-01-23T02:41:16.961Z,90.78
2017-01-23T02:41:57.631Z,90.69
2017-01-23T02:42:39.059Z,90.69
2017-01-23T02:43:19.647Z,90.88
2017-01-23T02:44:00.235Z,90.88
2017-01-23T02:44:40.867Z,90.78
2017-01-23T02:45:21.491Z,90.69
2017-01-23T02:46:02.104Z,90.69
2017-01-23T02:46:42.709Z,90.97
2017-01-23T02:47:23.449Z,90.69
2017-01-23T02:48:04.015Z,90.97
2017-01-23T02:48:44.680Z,90.69
2017-01-23T02:49:25.306Z,90.78
2017-01-23T02:50:05.952Z,90.78
2017-01-23T02:50:46.617Z,90.88
2017-01-23T02:51:27.258Z,90.88
2017-01-23T02:52:07.919Z,90.88
2017-01-23T02:52:48.563Z,90.88
2017-01-23T02:53:29.227Z,90.78
2017-01-23T02:54:09.879Z,90.78
2017-01-23T02:54:51.660Z,90.88
2017-01-23T02:55:32.310Z,90.69
2017-01-23T02:56:12.965Z,90.5
2017-01-23T02:56:53.617Z,90.69
2017-01-23T02:57:34.269Z,90.69
2017-01-23T02:58:16.891Z,90.69
2017-01-23T02:58:57.513Z,90.78
2017-01-23T02:59:39.004Z,90.59
2017-01-23T03:00:19.733Z,90.69
2017-01-23T03:01:00.484Z,90.88
2017-01-23T03:01:41.097Z,90.88
2017-01-23T03:02:21.724Z,90.5
2017-01-23T03:03:02.377Z,90.88
2017-01-23T03:03:43.029Z,90.78
2017-01-23T03:04:23.676Z,90.88
2017-01-23T03:05:04.269Z,90.88
2017-01-23T03:05:45.891Z,90.97
2017-01-23T03:06:26.456Z,90.41
2017-01-23T03:07:07.120Z,90.5
2017-01-23T03:07:47.701Z,90.41
2017-01-23T03:08:28.298Z,90.5
2017-01-23T03:09:08.862Z,90.41
2017-01-23T03:09:49.557Z,90.31
2017-01-23T03:10:30.339Z,90.31
2017-01-23T03:11:10.912Z,90.5
2017-01-23T03:11:51.493Z,90.5
2017-01-23T03:12:33.212Z,90.12
2017-01-23T03:13:13.848Z,90.12
2017-01-23T03:13:54.463Z,90.41
2017-01-23T03:14:35.106Z,90.5
2017-01-23T03:15:15.785Z,90.41
2017-01-23T03:15:56.444Z,90.5
2017-01-23T03:16:38.086Z,90.5
2017-01-23T03:17:18.813Z,90.41
2017-01-23T03:17:59.386Z,90.31
2017-01-23T03:18:40.036Z,90.22
2017-01-23T03:19:20.604Z,90.22
2017-01-23T03:20:01.258Z,90.41
2017-01-23T03:20:42.874Z,90.41
2017-01-23T03:21:23.494Z,90.59
2017-01-23T03:22:04.072Z,90.59
2017-01-23T03:22:44.688Z,90.31
2017-01-23T03:23:25.279Z,90.31
2017-01-23T03:24:05.876Z,90.31
2017-01-23T03:24:46.425Z,90.41
2017-01-23T03:25:27.113Z,90.31
2017-01-23T03:26:07.716Z,90.31
2017-01-23T03:26:48.279Z,90.26
2017-01-23T03:27:28.834Z,90.31
2017-01-23T03:28:09.509Z,90.41
2017-01-23T03:28:51.118Z,90.26
2017-01-23T03:29:31.737Z,90.31
2017-01-23T03:30:12.312Z,90.59
2017-01-23T03:30:52.940Z,90.5
2017-01-23T03:31:33.525Z,90.5
2017-01-23T03:32:14.118Z,90.31
2017-01-23T03:32:54.907Z,90.36
2017-01-23T03:33:37.499Z,90.41
2017-01-23T03:34:18.089Z,90.26
2017-01-23T03:34:58.822Z,90.36
2017-01-23T03:35:39.475Z,90.5
2017-01-23T03:36:20.134Z,90.41
2017-01-23T03:37:00.702Z,90.5
2017-01-23T03:37:41.299Z,90.31
2017-01-23T03:38:21.858Z,90.31
2017-01-23T03:39:03.332Z,90.31
2017-01-23T03:39:43.916Z,90.41
2017-01-23T03:40:24.526Z,90.41
2017-01-23T03:41:05.095Z,90.5
2017-01-23T03:41:45.751Z,90.31
2017-01-23T03:42:26.331Z,90.5
2017-01-23T03:43:06.925Z,90.36
2017-01-23T03:43:47.495Z,90.41
2017-01-23T03:44:28.146Z,90.5
2017-01-23T03:45:08.806Z,90.73
2017-01-23T03:45:49.517Z,90.69
2017-01-23T03:46:30.181Z,90.78
2017-01-23T03:47:10.763Z,90.97
2017-01-23T03:47:51.422Z,91.06
2017-01-23T03:48:32.077Z,90.88
2017-01-23T03:49:14.663Z,90.69
2017-01-23T03:49:55.328Z,90.69
2017-01-23T03:50:36.985Z,90.97
2017-01-23T03:51:17.647Z,91.25
2017-01-23T03:51:58.330Z,91.06
2017-01-23T03:52:38.984Z,90.69
2017-01-23T03:53:19.623Z,91.35
2017-01-23T03:54:00.268Z,91.63
2017-01-23T03:54:40.838Z,91.53
2017-01-23T03:55:22.476Z,91.16
2017-01-23T03:56:03.056Z,91.06
2017-01-23T03:56:43.683Z,91.72
2017-01-23T03:57:24.288Z,91.53
2017-01-23T03:58:04.890Z,91.72
2017-01-23T03:58:45.451Z,91.91
2017-01-23T03:59:26.103Z,91.72
2017-01-23T04:00:06.718Z,91.35
2017-01-23T04:00:47.390Z,92
2017-01-23T04:01:27.956Z,92
2017-01-23T04:02:09.311Z,92.1
2017-01-23T04:02:49.938Z,91.72
2017-01-23T04:03:31.543Z,92.1
2017-01-23T04:04:12.110Z,91.72
2017-01-23T04:04:52.755Z,92.66
2017-01-23T04:05:33.398Z,92.57
2017-01-23T04:06:14.092Z,92.47
2017-01-23T04:06:55.741Z,92.66
2017-01-23T04:07:36.427Z,92.29
2017-01-23T04:08:17.033Z,92.47
2017-01-23T04:08:57.723Z,92.47
2017-01-23T04:09:39.389Z,92.66
2017-01-23T04:10:20.080Z,92.57
2017-01-23T04:11:00.924Z,92.95
2017-01-23T04:11:41.545Z,92.66
2017-01-23T04:12:22.184Z,92.66
2017-01-23T04:13:02.852Z,93.42
2017-01-23T04:13:43.501Z,93.13
2017-01-23T04:14:24.142Z,92.95
2017-01-23T04:15:04.806Z,93.13
2017-01-23T04:15:45.515Z,92.66
2017-01-23T04:16:26.132Z,92.85
2017-01-23T04:17:07.805Z,93.23
2017-01-23T04:17:48.433Z,93.04
2017-01-23T04:18:29.196Z,93.23
2017-01-23T04:19:09.854Z,93.42
2017-01-23T04:19:50.441Z,93.23
2017-01-23T04:20:31.027Z,93.32
2017-01-23T04:21:11.615Z,93.51
2017-01-23T04:21:52.256Z,93.42
2017-01-23T04:22:32.849Z,93.13
2017-01-23T04:23:13.443Z,93.23
2017-01-23T04:23:54.023Z,93.23
2017-01-23T04:24:34.674Z,93.89
2017-01-23T04:25:15.325Z,93.8
2017-01-23T04:25:55.971Z,93.89
2017-01-23T04:26:36.632Z,93.98
2017-01-23T04:27:17.276Z,93.7
2017-01-23T04:27:57.920Z,93.89
2017-01-23T04:28:38.588Z,93.98
2017-01-23T04:29:19.246Z,93.7
2017-01-23T04:29:59.887Z,93.8
2017-01-23T04:30:41.198Z,94.17
2017-01-23T04:31:21.821Z,94.46
2017-01-23T04:32:02.455Z,94.27
2017-01-23T04:32:43.119Z,94.27
2017-01-23T04:33:23.806Z,93.98
2017-01-23T04:34:04.417Z,94.17
2017-01-23T04:34:45.000Z,94.27
2017-01-23T04:35:25.606Z,94.36
2017-01-23T04:36:06.173Z,93.98
2017-01-23T04:36:46.851Z,94.27
2017-01-23T04:37:27.522Z,94.17
2017-01-23T04:38:08.117Z,93.98
2017-01-23T04:38:48.686Z,94.08
2017-01-23T04:39:29.335Z,94.08
2017-01-23T04:40:09.997Z,93.98
2017-01-23T04:40:50.649Z,94.17
2017-01-23T04:41:31.293Z,94.17
2017-01-23T04:42:11.941Z,94.27
2017-01-23T04:42:52.608Z,94.27
2017-01-23T04:43:34.285Z,94.55
2017-01-23T04:44:14.922Z,94.65
2017-01-23T04:44:56.585Z,94.55
2017-01-23T04:45:37.939Z,94.08
2017-01-23T04:46:18.541Z,94.74
2017-01-23T04:46:59.162Z,94.08
2017-01-23T04:47:39.719Z,94.55
2017-01-23T04:48:20.379Z,94.55
2017-01-23T04:49:01.021Z,94.65
2017-01-23T04:49:41.572Z,94.17
2017-01-23T04:50:22.257Z,94.65
2017-01-23T04:51:02.896Z,94.65
2017-01-23T04:51:43.551Z,93.89
2017-01-23T04:52:24.211Z,94.36
2017-01-23T04:53:04.848Z,94.17
2017-01-23T04:53:45.502Z,94.55
2017-01-23T04:54:26.144Z,94.74
2017-01-23T04:55:06.792Z,94.55
2017-01-23T04:55:47.348Z,94.27
2017-01-23T04:56:28.019Z,94.36
2017-01-23T04:57:08.648Z,94.36
2017-01-23T04:57:49.205Z,94.17
2017-01-23T04:58:29.868Z,94.08
2017-01-23T04:59:10.505Z,94.17
2017-01-23T04:59:51.170Z,94.36
2017-01-23T05:00:31.808Z,94.36
2017-01-23T05:01:12.466Z,94.55
2017-01-23T05:01:53.115Z,94.74
2017-01-23T05:02:33.770Z,94.93
2017-01-23T05:03:15.446Z,95.21
2017-01-23T05:03:56.113Z,94.93
2017-01-23T05:04:36.688Z,95.02
2017-01-23T05:05:19.286Z,94.83
2017-01-23T05:05:59.909Z,94.65
2017-01-23T05:06:40.481Z,94.83
2017-01-23T05:07:21.136Z,94.93
2017-01-23T05:08:02.784Z,95.21
2017-01-23T05:08:43.365Z,95.21
2017-01-23T05:09:24.016Z,95.4
2017-01-23T05:10:05.673Z,95.4
2017-01-23T05:10:46.246Z,94.93
2017-01-23T05:11:27.975Z,94.93
2017-01-23T05:12:08.596Z,94.93
2017-01-23T05:12:49.218Z,95.02
2017-01-23T05:13:29.808Z,95.21
2017-01-23T05:14:10.417Z,95.21
2017-01-23T05:14:51.016Z,95.17
2017-01-23T05:15:31.600Z,95.26
2017-01-23T05:16:12.171Z,95.26
2017-01-23T05:16:52.823Z,95.26
2017-01-23T05:17:33.420Z,95.26
2017-01-23T05:18:14.006Z,95.26
2017-01-23T05:18:54.579Z,95.26
2017-01-23T05:19:35.236Z,95.26
2017-01-23T05:20:15.816Z,95.45
2017-01-23T05:20:56.412Z,94.88
2017-01-23T05:21:36.997Z,94.98
2017-01-23T05:22:17.634Z,94.98
2017-01-23T05:22:58.247Z,95.17
2017-01-23T05:23:38.820Z,95.17
2017-01-23T05:24:19.414Z,94.98
2017-01-23T05:25:00.042Z,95.17
2017-01-23T05:25:40.644Z,95.26
2017-01-23T05:26:21.230Z,95.26
2017-01-23T05:27:01.787Z,94.79
2017-01-23T05:27:42.448Z,95.92
2017-01-23T05:28:23.046Z,95.83
2017-01-23T05:29:03.650Z,94.79
2017-01-23T05:29:44.215Z,95.83
2017-01-23T05:30:24.890Z,94.79
2017-01-23T05:31:05.558Z,95.83
2017-01-23T05:31:46.149Z,95.83
2017-01-23T05:32:26.723Z,95.83
2017-01-23T05:33:07.387Z,95.83
2017-01-23T05:33:48.066Z,95.83
2017-01-23T05:34:28.663Z,94.88
2017-01-23T05:35:09.231Z,95.83
2017-01-23T05:35:49.884Z,95.73
2017-01-23T05:36:30.543Z,95.64
2017-01-23T05:37:12.190Z,95.83
2017-01-23T05:37:52.877Z,95.83
2017-01-23T05:38:34.584Z,95.92
2017-01-23T05:39:15.196Z,95.54
2017-01-23T05:39:55.823Z,96.01
2017-01-23T05:40:36.398Z,95.64
2017-01-23T05:41:17.067Z,95.54
2017-01-23T05:41:57.688Z,95.54
2017-01-23T05:42:38.242Z,95.26
2017-01-23T05:43:18.907Z,95.83
2017-01-23T05:43:59.549Z,95.83
2017-01-23T05:44:40.110Z,95.26
2017-01-23T05:45:20.764Z,95.73
2017-01-23T05:46:01.419Z,95.83
2017-01-23T05:46:42.069Z,95.83
2017-01-23T05:47:22.724Z,95.64
2017-01-23T05:48:03.364Z,95.54
2017-01-23T05:48:44.025Z,95.64
2017-01-23T05:49:24.681Z,95.64
2017-01-23T05:50:05.309Z,95.64
2017-01-23T05:50:45.859Z,95.64
2017-01-23T05:51:26.411Z,94.98
2017-01-23T05:52:07.105Z,95.83
2017-01-23T05:52:47.767Z,95.92
2017-01-23T05:53:28.379Z,95.54
2017-01-23T05:54:09.034Z,95.64
2017-01-23T05:54:49.591Z,95.54
2017-01-23T05:55:30.228Z,95.73
2017-01-23T05:56:10.781Z,95.64
2017-01-23T05:56:51.449Z,95.64
2017-01-23T05:57:32.028Z,95.73
2017-01-23T05:58:12.596Z,95.64
2017-01-23T05:58:53.198Z,95.64
2017-01-23T05:59:34.866Z,95.64
2017-01-23T06:00:16.534Z,95.83
2017-01-23T06:00:58.115Z,95.83
2017-01-23T06:01:38.760Z,95.64
2017-01-23T06:02:19.410Z,95.83
2017-01-23T06:03:00.080Z,95.92
2017-01-23T06:03:40.731Z,95.73
2017-01-23T06:04:22.396Z,95.83
2017-01-23T06:05:02.964Z,95.92
2017-01-23T06:05:43.631Z,95.64
2017-01-23T06:06:24.213Z,95.36
2017-01-23T06:07:04.804Z,95.73
2017-01-23T06:07:45.383Z,95.83
2017-01-23T06:08:26.039Z,95.45
2017-01-23T06:09:07.645Z,95.45
2017-01-23T06:09:48.241Z,95.45
2017-01-23T06:10:28.812Z,95.45
2017-01-23T06:11:09.461Z,95.73
2017-01-23T06:11:50.073Z,95.26
2017-01-23T06:12:30.652Z,95.45
2017-01-23T06:13:11.213Z,95.36
2017-01-23T06:13:51.901Z,95.54
2017-01-23T06:14:32.566Z,95.54
2017-01-23T06:15:13.161Z,95.64
2017-01-23T06:15:53.770Z,95.54
2017-01-23T06:16:34.390Z,95.54
2017-01-23T06:17:14.969Z,95.54
2017-01-23T06:17:55.568Z,95.54
2017-01-23T06:18:36.133Z,95.64
2017-01-23T06:19:16.829Z,95.54
2017-01-23T06:19:57.420Z,95.64
2017-01-23T06:20:37.994Z,95.64
2017-01-23T06:21:18.647Z,95.64
2017-01-23T06:22:00.261Z,95.73
2017-01-23T06:22:40.853Z,95.45
2017-01-23T06:23:21.409Z,95.54
2017-01-23T06:24:02.083Z,95.64
2017-01-23T06:24:42.668Z,95.83
2017-01-23T06:25:23.275Z,95.64
2017-01-23T06:26:03.935Z,95.73
2017-01-23T06:26:44.597Z,95.54
2017-01-23T06:27:25.234Z,95.64
2017-01-23T06:28:05.888Z,95.64
2017-01-23T06:28:46.548Z,95.73
2017-01-23T06:29:27.216Z,95.64
2017-01-23T06:30:07.848Z,95.64
2017-01-23T06:30:48.432Z,95.64
2017-01-23T06:31:29.048Z,95.64
2017-01-23T06:32:09.739Z,95.83
2017-01-23T06:32:50.442Z,95.73
2017-01-23T06:33:30.993Z,95.73
2017-01-23T06:34:11.698Z,95.83
2017-01-23T06:34:52.352Z,95.64
2017-01-23T06:35:33.007Z,95.73
2017-01-23T06:36:13.667Z,95.92
2017-01-23T06:36:54.322Z,95.64
2017-01-23T06:37:34.964Z,95.92
2017-01-23T06:38:15.619Z,95.73
2017-01-23T06:38:56.271Z,95.73
2017-01-23T06:39:36.938Z,95.36
2017-01-23T06:40:17.578Z,95.83
2017-01-23T06:40:58.235Z,95.36
2017-01-23T06:41:38.882Z,95.45
2017-01-23T06:42:19.536Z,95.83
2017-01-23T06:43:00.198Z,95.83
2017-01-23T06:43:40.847Z,95.36
2017-01-23T06:44:21.490Z,95.45
2017-01-23T06:45:02.146Z,95.45
2017-01-23T06:45:42.800Z,95.45
2017-01-23T06:46:23.458Z,95.45
2017-01-23T06:47:04.106Z,95.54
2017-01-23T06:47:44.773Z,95.26
2017-01-23T06:48:25.439Z,95.36
2017-01-23T06:49:06.069Z,95.45
2017-01-23T06:49:46.725Z,95.36
2017-01-23T06:50:27.458Z,95.26
2017-01-23T06:51:08.087Z,95.36
2017-01-23T06:51:48.724Z,95.45
2017-01-23T06:52:29.399Z,95.45
2017-01-23T06:53:10.049Z,95.45
2017-01-23T06:53:50.697Z,95.45
2017-01-23T06:54:31.350Z,95.73
2017-01-23T06:55:12.048Z,95.73
2017-01-23T06:55:52.744Z,95.73
2017-01-23T06:56:33.288Z,95.73
2017-01-23T06:57:16.005Z,95.73
2017-01-23T06:57:56.699Z,95.92
2017-01-23T06:58:37.404Z,96.11
2017-01-23T06:59:17.969Z,95.92
2017-01-23T06:59:58.615Z,96.01
2017-01-23T07:00:39.315Z,96.01
2017-01-23T07:01:20.006Z,96.01
2017-01-23T07:02:00.584Z,95.83
2017-01-23T07:02:41.234Z,95.87
2017-01-23T07:03:21.934Z,95.87
2017-01-23T07:04:02.628Z,95.83
2017-01-23T07:04:43.195Z,95.83
2017-01-23T07:05:23.847Z,95.68
2017-01-23T07:06:04.537Z,95.83
2017-01-23T07:06:45.245Z,95.83
2017-01-23T07:07:25.785Z,95.5
2017-01-23T07:08:06.461Z,95.78
2017-01-23T07:08:47.155Z,95.83
2017-01-23T07:09:27.856Z,95.83
2017-01-23T07:10:08.431Z,95.83
2017-01-23T07:10:49.084Z,95.64
2017-01-23T07:11:29.728Z,95.59
2017-01-23T07:12:10.360Z,95.97
2017-01-23T07:12:51.030Z,96.06
2017-01-23T07:13:32.702Z,95.68
2017-01-23T07:14:13.364Z,95.68
2017-01-23T07:14:54.008Z,96.06
2017-01-23T07:15:34.708Z,96.15
2017-01-23T07:16:15.406Z,95.78
2017-01-23T07:16:55.964Z,96.25
2017-01-23T07:17:36.614Z,96.25
2017-01-23T07:18:17.320Z,96.15
2017-01-23T07:18:58.020Z,96.06
2017-01-23T07:19:38.595Z,95.97
2017-01-23T07:20:19.241Z,95.97
2017-01-23T07:20:59.903Z,95.87
2017-01-23T07:21:40.532Z,96.06
2017-01-23T07:22:21.189Z,96.06
2017-01-23T07:23:01.845Z,96.06
2017-01-23T07:23:42.489Z,95.87
2017-01-23T07:24:23.165Z,95.97
2017-01-23T07:25:03.804Z,96.53
2017-01-23T07:25:44.499Z,96.53
2017-01-23T07:26:25.188Z,96.53
2017-01-23T07:27:05.760Z,96.53
2017-01-23T07:27:46.424Z,96.44
2017-01-23T07:28:27.108Z,96.34
2017-01-23T07:29:07.823Z,96.53
2017-01-23T07:29:48.398Z,96.53
2017-01-23T07:30:30.089Z,96.44
2017-01-23T07:31:10.793Z,96.53
2017-01-23T07:31:52.473Z,96.53
2017-01-23T07:32:35.185Z,96.44
2017-01-23T07:33:15.826Z,96.44
2017-01-23T07:33:57.513Z,96.44
2017-01-23T07:34:38.168Z,96.53
2017-01-23T07:35:19.842Z,96.25
2017-01-23T07:36:00.533Z,96.44
2017-01-23T07:36:41.271Z,96.25
2017-01-23T07:37:21.893Z,96.34
2017-01-23T07:38:02.557Z,96.34
2017-01-23T07:38:43.240Z,96.25
2017-01-23T07:39:23.867Z,96.44
2017-01-23T07:40:05.745Z,96.53
2017-01-23T07:40:46.434Z,96.34
2017-01-23T07:41:26.987Z,96.53
2017-01-23T07:42:07.692Z,96.25
2017-01-23T07:42:48.373Z,96.34
2017-01-23T07:43:28.943Z,96.53
2017-01-23T07:44:09.654Z,96.25
2017-01-23T07:44:50.301Z,96.25
2017-01-23T07:45:30.860Z,96.34
2017-01-23T07:46:11.517Z,96.63
2017-01-23T07:46:52.218Z,96.44
2017-01-23T07:47:33.940Z,96.34
2017-01-23T07:48:14.493Z,96.34
2017-01-23T07:48:55.132Z,96.44
2017-01-23T07:49:35.845Z,96.44
2017-01-23T07:50:16.562Z,96.34
2017-01-23T07:50:57.078Z,96.44
2017-01-23T07:51:37.768Z,96.34
2017-01-23T07:52:18.458Z,96.44
2017-01-23T07:52:59.158Z,96.34
2017-01-23T07:53:39.716Z,96.44
2017-01-23T07:54:21.395Z,96.34
2017-01-23T07:55:02.101Z,96.34
2017-01-23T07:55:42.808Z,96.44
2017-01-23T07:56:23.354Z,96.15
2017-01-23T07:57:04.101Z,96.15
2017-01-23T07:57:44.805Z,96.44
2017-01-23T07:58:25.520Z,96.15
2017-01-23T07:59:06.079Z,96.53
2017-01-23T07:59:46.770Z,96.34
2017-01-23T08:00:28.500Z,96.34
2017-01-23T08:01:09.060Z,96.34
2017-01-23T08:01:50.749Z,96.34
2017-01-23T08:02:31.481Z,96.34
2017-01-23T08:03:12.055Z,96.34
2017-01-23T08:03:52.707Z,96.15
2017-01-23T08:04:33.330Z,96.34
2017-01-23T08:05:13.900Z,96.34
2017-01-23T08:05:54.543Z,96.34
2017-01-23T08:06:36.266Z,96.25
2017-01-23T08:07:16.976Z,96.34
2017-01-23T08:07:57.531Z,96.53
2017-01-23T08:08:38.251Z,96.34
2017-01-23T08:09:18.887Z,96.34
2017-01-23T08:09:59.479Z,96.34
2017-01-23T08:10:40.039Z,96.25
2017-01-23T08:11:20.687Z,96.53
2017-01-23T08:12:01.387Z,96.15
2017-01-23T08:12:42.094Z,96.44
2017-01-23T08:13:22.626Z,96.25
2017-01-23T08:14:04.196Z,96.25
2017-01-23T08:14:44.834Z,96.25
2017-01-23T08:15:25.524Z,96.25
2017-01-23T08:16:06.176Z,96.25
2017-01-23T08:16:46.834Z,96.44
2017-01-23T08:17:27.477Z,96.25
2017-01-23T08:18:08.261Z,96.44
2017-01-23T08:18:48.995Z,96.25
2017-01-23T08:19:29.749Z,96.44
2017-01-23T08:20:10.284Z,95.97
2017-01-23T08:20:51.002Z,96.34
2017-01-23T08:21:31.623Z,96.72
2017-01-23T08:22:13.357Z,96.44
2017-01-23T08:22:54.041Z,96.44
2017-01-23T08:23:34.712Z,96.25
2017-01-23T08:24:15.368Z,96.44
2017-01-23T08:24:56.117Z,96.25
2017-01-23T08:25:36.819Z,96.81
2017-01-23T08:26:17.513Z,96.06
2017-01-23T08:26:58.033Z,96.72
2017-01-23T08:27:38.721Z,96.81
2017-01-23T08:28:19.407Z,96.91
2017-01-23T08:29:00.115Z,96.91
2017-01-23T08:29:40.664Z,95.97
2017-01-23T08:30:21.470Z,96.53
2017-01-23T08:31:02.459Z,96.25
2017-01-23T08:31:43.147Z,96.44
2017-01-23T08:32:23.695Z,96.81
2017-01-23T08:33:04.373Z,96.72
2017-01-23T08:33:45.072Z,95.97
2017-01-23T08:34:25.750Z,96.81
2017-01-23T08:35:06.309Z,96.72
2017-01-23T08:35:46.979Z,96.72
2017-01-23T08:36:27.668Z,96.91
2017-01-23T08:37:09.515Z,96.53
2017-01-23T08:37:50.134Z,96.53
2017-01-23T08:38:31.823Z,96.72
2017-01-23T08:39:13.545Z,96.81
2017-01-23T08:39:55.282Z,96.81
2017-01-23T08:40:35.938Z,96.72
2017-01-23T08:41:16.584Z,96.72
2017-01-23T08:41:57.262Z,96.81
2017-01-23T08:42:37.882Z,96.81
2017-01-23T08:43:18.567Z,96.91
2017-01-23T08:43:59.363Z,96.91
2017-01-23T08:44:40.058Z,96.91
2017-01-23T08:45:20.616Z,96.81
2017-01-23T08:46:02.295Z,96.72
2017-01-23T08:46:42.987Z,96.44